sensor_id;sensor_type;location;lat;lon;timestamp;temperature;humidity
19248;DHT22;9758;48.640;8.148;2023-12-04T00:02:12;1.00;59.60
19248;DHT22;9758;48.640;8.148;2023-12-04T00:04:40;1.00;59.60
19248;DHT22;9758;48.640;8.148;2023-12-04T00:07:07;1.00;59.60
19248;DHT22;9758;48.640;8.148;2023-12-04T00:09:35;1.00;59.60
19248;DHT22;9758;48.640;8.148;2023-12-04T00:12:02;1.00;59.70
19248;DHT22;9758;48.640;8.148;2023-12-04T00:14:30;1.00;59.70
19248;DHT22;9758;48.640;8.148;2023-12-04T00:16:56;1.00;59.70
19248;DHT22;9758;48.640;8.148;2023-12-04T00:19:25;0.90;59.70
19248;DHT22;9758;48.640;8.148;2023-12-04T00:21:52;0.90;59.70
19248;DHT22;9758;48.640;8.148;2023-12-04T00:24:19;0.90;59.70
19248;DHT22;9758;48.640;8.148;2023-12-04T00:26:47;0.90;59.70
19248;DHT22;9758;48.640;8.148;2023-12-04T00:29:14;0.90;59.70
19248;DHT22;9758;48.640;8.148;2023-12-04T00:31:41;0.90;59.70
19248;DHT22;9758;48.640;8.148;2023-12-04T00:34:08;0.90;59.70
19248;DHT22;9758;48.640;8.148;2023-12-04T00:36:39;0.90;59.70
19248;DHT22;9758;48.640;8.148;2023-12-04T00:39:06;0.90;59.70
19248;DHT22;9758;48.640;8.148;2023-12-04T00:41:34;0.90;59.80
19248;DHT22;9758;48.640;8.148;2023-12-04T00:44:01;0.90;59.80
19248;DHT22;9758;48.640;8.148;2023-12-04T00:46:29;0.90;59.80
19248;DHT22;9758;48.640;8.148;2023-12-04T00:48:55;0.90;59.80
19248;DHT22;9758;48.640;8.148;2023-12-04T00:51:23;0.90;59.80
19248;DHT22;9758;48.640;8.148;2023-12-04T00:53:53;0.90;59.80
19248;DHT22;9758;48.640;8.148;2023-12-04T00:56:21;0.90;59.80
19248;DHT22;9758;48.640;8.148;2023-12-04T00:58:48;0.90;59.80
19248;DHT22;9758;48.640;8.148;2023-12-04T01:01:15;0.90;59.80
19248;DHT22;9758;48.640;8.148;2023-12-04T01:03:42;0.90;59.80
19248;DHT22;9758;48.640;8.148;2023-12-04T01:06:20;0.90;59.80
19248;DHT22;9758;48.640;8.148;2023-12-04T01:08:48;0.90;59.80
19248;DHT22;9758;48.640;8.148;2023-12-04T01:11:17;0.80;59.80
19248;DHT22;9758;48.640;8.148;2023-12-04T01:13:46;0.80;59.80
19248;DHT22;9758;48.640;8.148;2023-12-04T01:16:14;0.90;59.80
19248;DHT22;9758;48.640;8.148;2023-12-04T01:18:43;0.80;59.80
19248;DHT22;9758;48.640;8.148;2023-12-04T01:21:12;0.80;59.80
19248;DHT22;9758;48.640;8.148;2023-12-04T01:23:41;0.80;59.80
19248;DHT22;9758;48.640;8.148;2023-12-04T01:26:19;0.80;59.80
19248;DHT22;9758;48.640;8.148;2023-12-04T01:28:47;0.80;59.80
19248;DHT22;9758;48.640;8.148;2023-12-04T01:31:14;0.80;59.70
19248;DHT22;9758;48.640;8.148;2023-12-04T01:33:43;0.80;59.80
19248;DHT22;9758;48.640;8.148;2023-12-04T01:36:11;0.70;59.70
19248;DHT22;9758;48.640;8.148;2023-12-04T01:38:39;0.70;59.70
19248;DHT22;9758;48.640;8.148;2023-12-04T01:41:12;0.70;59.80
19248;DHT22;9758;48.640;8.148;2023-12-04T01:43:46;0.70;59.80
19248;DHT22;9758;48.640;8.148;2023-12-04T01:46:20;0.70;59.80
19248;DHT22;9758;48.640;8.148;2023-12-04T01:48:47;0.70;59.80
19248;DHT22;9758;48.640;8.148;2023-12-04T01:51:17;0.70;59.80
19248;DHT22;9758;48.640;8.148;2023-12-04T01:53:44;0.70;59.90
19248;DHT22;9758;48.640;8.148;2023-12-04T01:56:12;0.70;59.80
19248;DHT22;9758;48.640;8.148;2023-12-04T01:58:42;0.70;59.90
19248;DHT22;9758;48.640;8.148;2023-12-04T02:01:09;0.70;59.90
19248;DHT22;9758;48.640;8.148;2023-12-04T02:03:37;0.70;59.90
19248;DHT22;9758;48.640;8.148;2023-12-04T02:06:05;0.70;59.90
19248;DHT22;9758;48.640;8.148;2023-12-04T02:08:33;0.70;59.90
19248;DHT22;9758;48.640;8.148;2023-12-04T02:11:01;0.70;59.90
19248;DHT22;9758;48.640;8.148;2023-12-04T02:13:27;0.80;60.00
19248;DHT22;9758;48.640;8.148;2023-12-04T02:15:59;0.80;60.00
19248;DHT22;9758;48.640;8.148;2023-12-04T02:18:27;0.80;60.00
19248;DHT22;9758;48.640;8.148;2023-12-04T02:20:54;0.80;60.00
19248;DHT22;9758;48.640;8.148;2023-12-04T02:23:21;0.80;60.00
19248;DHT22;9758;48.640;8.148;2023-12-04T02:25:49;0.80;60.00
19248;DHT22;9758;48.640;8.148;2023-12-04T02:28:19;0.80;60.00
19248;DHT22;9758;48.640;8.148;2023-12-04T02:30:48;0.80;60.00
19248;DHT22;9758;48.640;8.148;2023-12-04T02:33:18;0.90;60.00
19248;DHT22;9758;48.640;8.148;2023-12-04T02:35:49;0.90;60.00
19248;DHT22;9758;48.640;8.148;2023-12-04T02:38:17;0.90;60.00
19248;DHT22;9758;48.640;8.148;2023-12-04T02:40:45;0.90;60.00
19248;DHT22;9758;48.640;8.148;2023-12-04T02:43:13;0.90;60.00
19248;DHT22;9758;48.640;8.148;2023-12-04T02:45:40;0.90;60.00
19248;DHT22;9758;48.640;8.148;2023-12-04T02:48:07;0.90;60.00
19248;DHT22;9758;48.640;8.148;2023-12-04T02:50:35;0.90;60.00
19248;DHT22;9758;48.640;8.148;2023-12-04T02:53:02;1.00;60.80
19248;DHT22;9758;48.640;8.148;2023-12-04T02:55:29;1.00;60.10
19248;DHT22;9758;48.640;8.148;2023-12-04T02:57:56;1.00;60.10
19248;DHT22;9758;48.640;8.148;2023-12-04T03:00:25;1.00;60.10
19248;DHT22;9758;48.640;8.148;2023-12-04T03:02:51;1.00;60.10
19248;DHT22;9758;48.640;8.148;2023-12-04T03:05:19;1.10;60.10
19248;DHT22;9758;48.640;8.148;2023-12-04T03:07:46;1.10;60.10
19248;DHT22;9758;48.640;8.148;2023-12-04T03:10:13;1.10;60.10
19248;DHT22;9758;48.640;8.148;2023-12-04T03:12:39;1.10;60.10
19248;DHT22;9758;48.640;8.148;2023-12-04T03:15:07;1.10;60.80
19248;DHT22;9758;48.640;8.148;2023-12-04T03:17:37;1.10;60.10
19248;DHT22;9758;48.640;8.148;2023-12-04T03:20:05;1.10;60.10
19248;DHT22;9758;48.640;8.148;2023-12-04T03:22:35;1.20;60.10
19248;DHT22;9758;48.640;8.148;2023-12-04T03:25:02;1.10;60.10
19248;DHT22;9758;48.640;8.148;2023-12-04T03:27:29;1.20;60.10
19248;DHT22;9758;48.640;8.148;2023-12-04T03:29:56;1.20;60.10
19248;DHT22;9758;48.640;8.148;2023-12-04T03:32:23;1.20;60.10
19248;DHT22;9758;48.640;8.148;2023-12-04T03:34:51;1.20;60.10
19248;DHT22;9758;48.640;8.148;2023-12-04T03:37:18;1.20;60.10
19248;DHT22;9758;48.640;8.148;2023-12-04T03:39:45;1.20;60.10
19248;DHT22;9758;48.640;8.148;2023-12-04T03:42:12;1.30;60.20
19248;DHT22;9758;48.640;8.148;2023-12-04T03:44:38;1.30;60.20
19248;DHT22;9758;48.640;8.148;2023-12-04T03:47:05;1.30;60.10
19248;DHT22;9758;48.640;8.148;2023-12-04T03:49:32;1.30;60.10
19248;DHT22;9758;48.640;8.148;2023-12-04T03:52:00;1.30;60.10
19248;DHT22;9758;48.640;8.148;2023-12-04T03:54:29;1.30;60.10
19248;DHT22;9758;48.640;8.148;2023-12-04T03:56:56;1.30;60.10
19248;DHT22;9758;48.640;8.148;2023-12-04T03:59:23;1.30;60.10
19248;DHT22;9758;48.640;8.148;2023-12-04T04:01:49;1.30;60.10
19248;DHT22;9758;48.640;8.148;2023-12-04T04:04:17;1.30;60.10
19248;DHT22;9758;48.640;8.148;2023-12-04T04:06:43;1.40;60.20
19248;DHT22;9758;48.640;8.148;2023-12-04T04:09:11;1.30;60.10
19248;DHT22;9758;48.640;8.148;2023-12-04T04:11:39;1.40;60.20
19248;DHT22;9758;48.640;8.148;2023-12-04T04:14:06;1.40;60.20
19248;DHT22;9758;48.640;8.148;2023-12-04T04:16:33;1.40;60.20
19248;DHT22;9758;48.640;8.148;2023-12-04T04:19:00;1.40;60.20
19248;DHT22;9758;48.640;8.148;2023-12-04T04:21:27;1.40;60.20
19248;DHT22;9758;48.640;8.148;2023-12-04T04:23:54;1.40;60.20
19248;DHT22;9758;48.640;8.148;2023-12-04T04:26:22;1.40;60.20
19248;DHT22;9758;48.640;8.148;2023-12-04T04:28:49;1.40;60.10
19248;DHT22;9758;48.640;8.148;2023-12-04T04:31:16;1.40;60.10
19248;DHT22;9758;48.640;8.148;2023-12-04T04:33:43;1.40;60.10
19248;DHT22;9758;48.640;8.148;2023-12-04T04:36:10;1.40;60.10
19248;DHT22;9758;48.640;8.148;2023-12-04T04:38:39;1.50;60.20
19248;DHT22;9758;48.640;8.148;2023-12-04T04:41:06;1.50;60.20
19248;DHT22;9758;48.640;8.148;2023-12-04T04:43:34;1.50;60.20
19248;DHT22;9758;48.640;8.148;2023-12-04T04:46:01;1.50;60.20
19248;DHT22;9758;48.640;8.148;2023-12-04T04:48:28;1.50;60.20
19248;DHT22;9758;48.640;8.148;2023-12-04T04:50:55;1.50;60.20
19248;DHT22;9758;48.640;8.148;2023-12-04T04:53:22;1.50;60.20
19248;DHT22;9758;48.640;8.148;2023-12-04T04:55:49;1.50;60.20
19248;DHT22;9758;48.640;8.148;2023-12-04T04:58:16;1.50;60.20
19248;DHT22;9758;48.640;8.148;2023-12-04T05:00:45;1.50;60.20
19248;DHT22;9758;48.640;8.148;2023-12-04T05:03:12;1.50;60.20
19248;DHT22;9758;48.640;8.148;2023-12-04T05:05:39;1.50;60.20
19248;DHT22;9758;48.640;8.148;2023-12-04T05:08:06;1.50;60.20
19248;DHT22;9758;48.640;8.148;2023-12-04T05:10:33;1.50;60.10
19248;DHT22;9758;48.640;8.148;2023-12-04T05:12:59;1.50;60.10
19248;DHT22;9758;48.640;8.148;2023-12-04T05:15:26;1.50;60.20
19248;DHT22;9758;48.640;8.148;2023-12-04T05:17:54;1.50;60.20
19248;DHT22;9758;48.640;8.148;2023-12-04T05:20:21;1.50;60.20
19248;DHT22;9758;48.640;8.148;2023-12-04T05:22:49;1.50;60.20
19248;DHT22;9758;48.640;8.148;2023-12-04T05:25:16;1.50;60.20
19248;DHT22;9758;48.640;8.148;2023-12-04T05:27:43;1.50;60.20
19248;DHT22;9758;48.640;8.148;2023-12-04T05:30:10;1.50;60.20
19248;DHT22;9758;48.640;8.148;2023-12-04T05:32:37;1.50;60.20
19248;DHT22;9758;48.640;8.148;2023-12-04T05:35:06;1.50;60.20
19248;DHT22;9758;48.640;8.148;2023-12-04T05:37:33;1.60;60.30
19248;DHT22;9758;48.640;8.148;2023-12-04T05:39:59;1.60;60.30
19248;DHT22;9758;48.640;8.148;2023-12-04T05:42:26;1.60;60.20
19248;DHT22;9758;48.640;8.148;2023-12-04T05:44:53;1.60;60.20
19248;DHT22;9758;48.640;8.148;2023-12-04T05:47:22;1.60;60.20
19248;DHT22;9758;48.640;8.148;2023-12-04T05:49:49;1.60;60.20
19248;DHT22;9758;48.640;8.148;2023-12-04T05:52:18;1.60;60.30
19248;DHT22;9758;48.640;8.148;2023-12-04T05:54:45;1.60;60.20
19248;DHT22;9758;48.640;8.148;2023-12-04T05:57:11;1.60;60.20
19248;DHT22;9758;48.640;8.148;2023-12-04T05:59:38;1.70;60.30
19248;DHT22;9758;48.640;8.148;2023-12-04T06:02:05;1.70;60.30
19248;DHT22;9758;48.640;8.148;2023-12-04T06:04:32;1.70;60.30
19248;DHT22;9758;48.640;8.148;2023-12-04T06:06:59;1.70;60.30
19248;DHT22;9758;48.640;8.148;2023-12-04T06:09:27;1.70;61.00
19248;DHT22;9758;48.640;8.148;2023-12-04T06:11:54;1.70;60.30
19248;DHT22;9758;48.640;8.148;2023-12-04T06:14:21;1.70;60.30
19248;DHT22;9758;48.640;8.148;2023-12-04T06:16:48;1.70;60.30
19248;DHT22;9758;48.640;8.148;2023-12-04T06:19:15;1.70;60.30
19248;DHT22;9758;48.640;8.148;2023-12-04T06:21:42;1.70;60.30
19248;DHT22;9758;48.640;8.148;2023-12-04T06:24:09;1.80;60.40
19248;DHT22;9758;48.640;8.148;2023-12-04T06:26:41;1.80;60.40
19248;DHT22;9758;48.640;8.148;2023-12-04T06:29:09;1.80;60.40
19248;DHT22;9758;48.640;8.148;2023-12-04T06:31:36;1.80;60.40
19248;DHT22;9758;48.640;8.148;2023-12-04T06:34:11;1.90;60.40
19248;DHT22;9758;48.640;8.148;2023-12-04T06:36:39;1.90;60.30
19248;DHT22;9758;48.640;8.148;2023-12-04T06:39:09;1.90;60.30
19248;DHT22;9758;48.640;8.148;2023-12-04T06:41:39;1.90;60.30
19248;DHT22;9758;48.640;8.148;2023-12-04T06:44:06;1.90;60.30
19248;DHT22;9758;48.640;8.148;2023-12-04T06:46:36;1.90;60.40
19248;DHT22;9758;48.640;8.148;2023-12-04T06:49:04;1.90;60.40
19248;DHT22;9758;48.640;8.148;2023-12-04T06:51:39;1.90;60.40
19248;DHT22;9758;48.640;8.148;2023-12-04T06:54:06;1.90;60.30
19248;DHT22;9758;48.640;8.148;2023-12-04T06:56:33;1.90;60.40
19248;DHT22;9758;48.640;8.148;2023-12-04T06:59:01;1.90;60.40
19248;DHT22;9758;48.640;8.148;2023-12-04T07:01:28;1.90;60.40
19248;DHT22;9758;48.640;8.148;2023-12-04T07:03:54;2.00;60.40
19248;DHT22;9758;48.640;8.148;2023-12-04T07:06:21;2.00;60.40
19248;DHT22;9758;48.640;8.148;2023-12-04T07:08:48;2.00;60.40
19248;DHT22;9758;48.640;8.148;2023-12-04T07:11:15;2.00;60.40
19248;DHT22;9758;48.640;8.148;2023-12-04T07:13:41;2.00;60.40
19248;DHT22;9758;48.640;8.148;2023-12-04T07:16:10;2.00;60.50
19248;DHT22;9758;48.640;8.148;2023-12-04T07:18:37;2.00;60.50
19248;DHT22;9758;48.640;8.148;2023-12-04T07:21:04;2.00;60.50
19248;DHT22;9758;48.640;8.148;2023-12-04T07:23:31;2.00;60.50
19248;DHT22;9758;48.640;8.148;2023-12-04T07:25:58;2.10;60.50
19248;DHT22;9758;48.640;8.148;2023-12-04T07:28:27;2.10;60.40
19248;DHT22;9758;48.640;8.148;2023-12-04T07:30:54;2.10;60.40
19248;DHT22;9758;48.640;8.148;2023-12-04T07:33:24;2.10;60.20
19248;DHT22;9758;48.640;8.148;2023-12-04T07:35:51;2.10;60.20
19248;DHT22;9758;48.640;8.148;2023-12-04T07:38:19;2.10;60.30
19248;DHT22;9758;48.640;8.148;2023-12-04T07:40:46;2.10;60.40
19248;DHT22;9758;48.640;8.148;2023-12-04T07:43:13;2.10;60.40
19248;DHT22;9758;48.640;8.148;2023-12-04T07:45:41;2.10;60.40
19248;DHT22;9758;48.640;8.148;2023-12-04T07:48:08;2.10;60.20
19248;DHT22;9758;48.640;8.148;2023-12-04T07:50:36;2.20;60.40
19248;DHT22;9758;48.640;8.148;2023-12-04T07:53:03;2.20;60.40
19248;DHT22;9758;48.640;8.148;2023-12-04T07:55:30;2.20;60.40
19248;DHT22;9758;48.640;8.148;2023-12-04T07:57:57;2.20;60.40
19248;DHT22;9758;48.640;8.148;2023-12-04T08:00:25;2.20;60.40
19248;DHT22;9758;48.640;8.148;2023-12-04T08:02:52;2.30;60.40
19248;DHT22;9758;48.640;8.148;2023-12-04T08:05:20;2.30;60.40
19248;DHT22;9758;48.640;8.148;2023-12-04T08:07:48;2.30;60.40
19248;DHT22;9758;48.640;8.148;2023-12-04T08:10:16;2.30;60.40
19248;DHT22;9758;48.640;8.148;2023-12-04T08:12:44;2.40;60.30
19248;DHT22;9758;48.640;8.148;2023-12-04T08:15:23;2.40;60.30
19248;DHT22;9758;48.640;8.148;2023-12-04T08:17:50;2.40;60.40
19248;DHT22;9758;48.640;8.148;2023-12-04T08:20:17;2.40;60.50
19248;DHT22;9758;48.640;8.148;2023-12-04T08:22:49;2.40;60.50
19248;DHT22;9758;48.640;8.148;2023-12-04T08:25:15;2.40;60.40
19248;DHT22;9758;48.640;8.148;2023-12-04T08:27:43;2.40;60.40
19248;DHT22;9758;48.640;8.148;2023-12-04T08:30:10;2.40;60.40
19248;DHT22;9758;48.640;8.148;2023-12-04T08:32:37;2.40;60.40
19248;DHT22;9758;48.640;8.148;2023-12-04T08:35:04;2.50;60.50
19248;DHT22;9758;48.640;8.148;2023-12-04T08:37:32;2.40;60.30
19248;DHT22;9758;48.640;8.148;2023-12-04T08:40:00;2.50;60.40
19248;DHT22;9758;48.640;8.148;2023-12-04T08:42:28;2.50;60.50
19248;DHT22;9758;48.640;8.148;2023-12-04T08:44:55;2.50;61.30
19248;DHT22;9758;48.640;8.148;2023-12-04T08:47:38;2.50;60.40
19248;DHT22;9758;48.640;8.148;2023-12-04T08:50:06;2.50;60.30
19248;DHT22;9758;48.640;8.148;2023-12-04T08:52:33;2.50;60.20
19248;DHT22;9758;48.640;8.148;2023-12-04T08:55:03;2.50;60.20
19248;DHT22;9758;48.640;8.148;2023-12-04T08:57:30;2.40;60.50
19248;DHT22;9758;48.640;8.148;2023-12-04T08:59:57;2.40;60.80
19248;DHT22;9758;48.640;8.148;2023-12-04T09:02:24;2.50;60.70
19248;DHT22;9758;48.640;8.148;2023-12-04T09:04:51;2.40;60.50
19248;DHT22;9758;48.640;8.148;2023-12-04T09:07:17;2.50;60.50
19248;DHT22;9758;48.640;8.148;2023-12-04T09:09:46;2.40;60.40
19248;DHT22;9758;48.640;8.148;2023-12-04T09:12:16;2.30;60.50
19248;DHT22;9758;48.640;8.148;2023-12-04T09:14:45;2.30;60.60
19248;DHT22;9758;48.640;8.148;2023-12-04T09:17:13;2.30;60.70
19248;DHT22;9758;48.640;8.148;2023-12-04T09:19:39;2.30;60.70
19248;DHT22;9758;48.640;8.148;2023-12-04T09:22:06;2.20;60.70
19248;DHT22;9758;48.640;8.148;2023-12-04T09:24:34;2.20;60.70
19248;DHT22;9758;48.640;8.148;2023-12-04T09:27:01;2.20;60.80
19248;DHT22;9758;48.640;8.148;2023-12-04T09:29:29;2.30;60.80
19248;DHT22;9758;48.640;8.148;2023-12-04T09:31:56;2.30;60.90
19248;DHT22;9758;48.640;8.148;2023-12-04T09:34:22;2.30;60.70
19248;DHT22;9758;48.640;8.148;2023-12-04T09:36:49;2.30;60.70
19248;DHT22;9758;48.640;8.148;2023-12-04T09:39:16;2.30;60.80
19248;DHT22;9758;48.640;8.148;2023-12-04T09:41:44;2.30;61.00
19248;DHT22;9758;48.640;8.148;2023-12-04T09:44:24;2.40;61.10
19248;DHT22;9758;48.640;8.148;2023-12-04T09:46:56;2.50;61.10
19248;DHT22;9758;48.640;8.148;2023-12-04T09:49:23;2.60;61.10
19248;DHT22;9758;48.640;8.148;2023-12-04T09:51:51;2.60;61.10
19248;DHT22;9758;48.640;8.148;2023-12-04T09:54:18;2.70;61.10
19248;DHT22;9758;48.640;8.148;2023-12-04T09:56:46;2.80;61.10
19248;DHT22;9758;48.640;8.148;2023-12-04T09:59:15;2.90;61.10
19248;DHT22;9758;48.640;8.148;2023-12-04T10:01:45;2.90;61.20
19248;DHT22;9758;48.640;8.148;2023-12-04T10:04:14;3.00;61.30
19248;DHT22;9758;48.640;8.148;2023-12-04T10:06:41;3.20;61.50
19248;DHT22;9758;48.640;8.148;2023-12-04T10:09:09;3.40;61.70
19248;DHT22;9758;48.640;8.148;2023-12-04T10:11:40;3.60;61.90
19248;DHT22;9758;48.640;8.148;2023-12-04T10:14:14;3.80;62.00
19248;DHT22;9758;48.640;8.148;2023-12-04T10:16:41;4.00;61.90
19248;DHT22;9758;48.640;8.148;2023-12-04T10:19:19;4.20;61.40
19248;DHT22;9758;48.640;8.148;2023-12-04T10:21:47;4.30;60.00
19248;DHT22;9758;48.640;8.148;2023-12-04T10:24:27;4.10;59.70
19248;DHT22;9758;48.640;8.148;2023-12-04T10:26:55;3.80;59.90
19248;DHT22;9758;48.640;8.148;2023-12-04T10:29:23;3.70;60.10
19248;DHT22;9758;48.640;8.148;2023-12-04T10:31:50;3.50;60.10
19248;DHT22;9758;48.640;8.148;2023-12-04T10:34:19;3.50;60.20
19248;DHT22;9758;48.640;8.148;2023-12-04T10:36:46;3.40;60.10
19248;DHT22;9758;48.640;8.148;2023-12-04T10:39:13;3.30;59.90
19248;DHT22;9758;48.640;8.148;2023-12-04T10:41:40;3.20;60.00
19248;DHT22;9758;48.640;8.148;2023-12-04T10:44:08;3.10;60.20
19248;DHT22;9758;48.640;8.148;2023-12-04T10:46:36;3.00;60.50
19248;DHT22;9758;48.640;8.148;2023-12-04T10:49:04;3.00;60.50
19248;DHT22;9758;48.640;8.148;2023-12-04T10:51:32;3.00;60.50
19248;DHT22;9758;48.640;8.148;2023-12-04T10:53:59;3.00;60.70
19248;DHT22;9758;48.640;8.148;2023-12-04T10:56:36;3.10;60.80
19248;DHT22;9758;48.640;8.148;2023-12-04T10:59:05;3.10;60.70
19248;DHT22;9758;48.640;8.148;2023-12-04T11:01:34;3.20;60.70
19248;DHT22;9758;48.640;8.148;2023-12-04T11:04:03;3.30;60.60
19248;DHT22;9758;48.640;8.148;2023-12-04T11:06:35;3.30;60.40
19248;DHT22;9758;48.640;8.148;2023-12-04T11:09:06;3.30;60.40
19248;DHT22;9758;48.640;8.148;2023-12-04T11:11:35;3.30;60.20
19248;DHT22;9758;48.640;8.148;2023-12-04T11:14:05;3.30;60.40
19248;DHT22;9758;48.640;8.148;2023-12-04T11:16:40;3.20;60.20
19248;DHT22;9758;48.640;8.148;2023-12-04T11:19:14;3.20;60.40
19248;DHT22;9758;48.640;8.148;2023-12-04T11:21:45;3.30;60.50
19248;DHT22;9758;48.640;8.148;2023-12-04T11:24:12;3.30;60.50
19248;DHT22;9758;48.640;8.148;2023-12-04T11:26:40;3.30;60.50
19248;DHT22;9758;48.640;8.148;2023-12-04T11:29:08;3.30;60.50
19248;DHT22;9758;48.640;8.148;2023-12-04T11:31:35;3.30;60.60
19248;DHT22;9758;48.640;8.148;2023-12-04T11:34:04;3.30;60.60
19248;DHT22;9758;48.640;8.148;2023-12-04T11:36:31;3.40;60.70
19248;DHT22;9758;48.640;8.148;2023-12-04T11:39:00;3.50;60.70
19248;DHT22;9758;48.640;8.148;2023-12-04T11:41:29;3.50;60.60
19248;DHT22;9758;48.640;8.148;2023-12-04T11:43:57;3.50;60.60
19248;DHT22;9758;48.640;8.148;2023-12-04T11:46:25;3.50;60.70
19248;DHT22;9758;48.640;8.148;2023-12-04T11:48:54;3.50;60.50
19248;DHT22;9758;48.640;8.148;2023-12-04T11:51:45;3.50;60.50
19248;DHT22;9758;48.640;8.148;2023-12-04T11:54:17;3.50;60.80
19248;DHT22;9758;48.640;8.148;2023-12-04T11:59:43;3.60;61.20
19248;DHT22;9758;48.640;8.148;2023-12-04T12:02:11;3.70;61.60
19248;DHT22;9758;48.640;8.148;2023-12-04T12:04:41;3.80;61.90
19248;DHT22;9758;48.640;8.148;2023-12-04T12:07:08;4.00;62.00
19248;DHT22;9758;48.640;8.148;2023-12-04T12:09:36;4.10;62.30
19248;DHT22;9758;48.640;8.148;2023-12-04T12:12:04;4.30;63.10
19248;DHT22;9758;48.640;8.148;2023-12-04T12:14:31;4.50;62.30
19248;DHT22;9758;48.640;8.148;2023-12-04T12:16:59;4.80;62.70
19248;DHT22;9758;48.640;8.148;2023-12-04T12:19:26;4.90;62.20
19248;DHT22;9758;48.640;8.148;2023-12-04T12:21:53;5.10;62.10
19248;DHT22;9758;48.640;8.148;2023-12-04T12:24:19;5.30;62.30
19248;DHT22;9758;48.640;8.148;2023-12-04T12:26:48;5.40;61.60
19248;DHT22;9758;48.640;8.148;2023-12-04T12:29:15;5.40;61.10
19248;DHT22;9758;48.640;8.148;2023-12-04T12:31:41;5.40;60.60
19248;DHT22;9758;48.640;8.148;2023-12-04T12:34:08;5.30;60.30
19248;DHT22;9758;48.640;8.148;2023-12-04T12:36:35;5.10;60.20
19248;DHT22;9758;48.640;8.148;2023-12-04T12:39:02;5.00;60.20
19248;DHT22;9758;48.640;8.148;2023-12-04T12:41:30;4.80;60.30
19248;DHT22;9758;48.640;8.148;2023-12-04T12:44:00;4.70;61.10
19248;DHT22;9758;48.640;8.148;2023-12-04T12:46:27;4.50;60.20
19248;DHT22;9758;48.640;8.148;2023-12-04T12:48:54;4.40;60.50
19248;DHT22;9758;48.640;8.148;2023-12-04T12:51:21;4.20;61.80
19248;DHT22;9758;48.640;8.148;2023-12-04T12:53:49;4.20;61.30
19248;DHT22;9758;48.640;8.148;2023-12-04T12:56:16;4.20;61.40
19248;DHT22;9758;48.640;8.148;2023-12-04T12:58:43;4.30;61.90
19248;DHT22;9758;48.640;8.148;2023-12-04T13:01:12;4.30;62.10
19248;DHT22;9758;48.640;8.148;2023-12-04T13:03:39;4.40;62.00
19248;DHT22;9758;48.640;8.148;2023-12-04T13:06:06;4.40;61.70
19248;DHT22;9758;48.640;8.148;2023-12-04T13:08:33;4.50;61.60
19248;DHT22;9758;48.640;8.148;2023-12-04T13:11:00;4.40;61.00
19248;DHT22;9758;48.640;8.148;2023-12-04T13:13:34;4.30;60.80
19248;DHT22;9758;48.640;8.148;2023-12-04T13:16:01;4.10;60.80
19248;DHT22;9758;48.640;8.148;2023-12-04T13:18:29;3.90;61.00
19248;DHT22;9758;48.640;8.148;2023-12-04T13:20:57;3.80;61.10
19248;DHT22;9758;48.640;8.148;2023-12-04T13:23:24;3.60;61.10
19248;DHT22;9758;48.640;8.148;2023-12-04T13:25:52;3.50;61.30
19248;DHT22;9758;48.640;8.148;2023-12-04T13:28:35;3.40;61.60
19248;DHT22;9758;48.640;8.148;2023-12-04T13:31:02;3.40;61.70
19248;DHT22;9758;48.640;8.148;2023-12-04T13:33:30;3.40;61.90
19248;DHT22;9758;48.640;8.148;2023-12-04T13:36:21;3.40;61.90
19248;DHT22;9758;48.640;8.148;2023-12-04T13:38:49;3.30;61.70
19248;DHT22;9758;48.640;8.148;2023-12-04T13:41:16;3.30;62.00
19248;DHT22;9758;48.640;8.148;2023-12-04T13:44:00;3.20;61.70
19248;DHT22;9758;48.640;8.148;2023-12-04T13:46:28;3.20;62.10
19248;DHT22;9758;48.640;8.148;2023-12-04T13:49:12;3.20;62.40
19248;DHT22;9758;48.640;8.148;2023-12-04T13:51:39;3.30;62.60
19248;DHT22;9758;48.640;8.148;2023-12-04T13:54:06;3.30;62.20
19248;DHT22;9758;48.640;8.148;2023-12-04T13:56:46;3.40;62.80
19248;DHT22;9758;48.640;8.148;2023-12-04T13:59:19;3.60;64.10
19248;DHT22;9758;48.640;8.148;2023-12-04T14:01:47;3.90;63.80
19248;DHT22;9758;48.640;8.148;2023-12-04T14:04:18;4.20;63.70
19248;DHT22;9758;48.640;8.148;2023-12-04T14:06:44;4.50;63.50
19248;DHT22;9758;48.640;8.148;2023-12-04T14:09:12;4.70;63.80
19248;DHT22;9758;48.640;8.148;2023-12-04T14:11:42;4.90;63.50
19248;DHT22;9758;48.640;8.148;2023-12-04T14:14:10;5.20;63.50
19248;DHT22;9758;48.640;8.148;2023-12-04T14:16:38;5.40;63.20
19248;DHT22;9758;48.640;8.148;2023-12-04T14:19:05;5.50;62.60
19248;DHT22;9758;48.640;8.148;2023-12-04T14:21:33;5.70;62.00
19248;DHT22;9758;48.640;8.148;2023-12-04T14:24:00;5.60;60.10
19248;DHT22;9758;48.640;8.148;2023-12-04T14:26:27;5.20;60.00
19248;DHT22;9758;48.640;8.148;2023-12-04T14:28:54;4.90;60.30
19248;DHT22;9758;48.640;8.148;2023-12-04T14:31:21;4.70;60.30
19248;DHT22;9758;48.640;8.148;2023-12-04T14:33:48;4.40;60.60
19248;DHT22;9758;48.640;8.148;2023-12-04T14:36:15;4.20;60.80
19248;DHT22;9758;48.640;8.148;2023-12-04T14:38:43;4.00;60.80
19248;DHT22;9758;48.640;8.148;2023-12-04T14:41:10;3.90;61.10
19248;DHT22;9758;48.640;8.148;2023-12-04T14:43:37;3.80;61.30
19248;DHT22;9758;48.640;8.148;2023-12-04T14:46:04;3.70;61.40
19248;DHT22;9758;48.640;8.148;2023-12-04T14:48:33;3.60;61.60
19248;DHT22;9758;48.640;8.148;2023-12-04T14:51:00;3.60;61.60
19248;DHT22;9758;48.640;8.148;2023-12-04T14:53:28;3.50;61.70
19248;DHT22;9758;48.640;8.148;2023-12-04T14:56:09;3.40;62.00
19248;DHT22;9758;48.640;8.148;2023-12-04T14:58:56;3.50;62.90
19248;DHT22;9758;48.640;8.148;2023-12-04T15:02:00;3.70;63.60
19248;DHT22;9758;48.640;8.148;2023-12-04T15:05:11;4.00;64.00
19248;DHT22;9758;48.640;8.148;2023-12-04T15:08:08;4.50;63.80
19248;DHT22;9758;48.640;8.148;2023-12-04T15:10:52;4.80;63.50
19248;DHT22;9758;48.640;8.148;2023-12-04T15:13:47;5.10;63.30
19248;DHT22;9758;48.640;8.148;2023-12-04T15:16:21;5.40;63.20
19248;DHT22;9758;48.640;8.148;2023-12-04T15:18:58;5.60;62.90
19248;DHT22;9758;48.640;8.148;2023-12-04T15:21:43;5.70;63.30
19248;DHT22;9758;48.640;8.148;2023-12-04T15:24:09;6.00;62.40
19248;DHT22;9758;48.640;8.148;2023-12-04T15:26:35;6.10;61.50
19248;DHT22;9758;48.640;8.148;2023-12-04T15:29:03;6.00;60.50
19248;DHT22;9758;48.640;8.148;2023-12-04T15:31:31;5.80;60.60
19248;DHT22;9758;48.640;8.148;2023-12-04T15:33:57;5.60;60.30
19248;DHT22;9758;48.640;8.148;2023-12-04T15:36:23;5.40;60.30
19248;DHT22;9758;48.640;8.148;2023-12-04T15:38:50;5.20;60.30
19248;DHT22;9758;48.640;8.148;2023-12-04T15:41:16;5.00;61.10
19248;DHT22;9758;48.640;8.148;2023-12-04T15:43:45;5.00;62.00
19248;DHT22;9758;48.640;8.148;2023-12-04T15:46:15;5.10;62.50
19248;DHT22;9758;48.640;8.148;2023-12-04T15:48:43;5.30;63.00
19248;DHT22;9758;48.640;8.148;2023-12-04T15:51:08;5.50;63.20
19248;DHT22;9758;48.640;8.148;2023-12-04T15:53:36;5.70;63.00
19248;DHT22;9758;48.640;8.148;2023-12-04T15:56:04;6.00;62.70
19248;DHT22;9758;48.640;8.148;2023-12-04T16:01:54;6.30;62.30
19248;DHT22;9758;48.640;8.148;2023-12-04T16:04:20;6.50;62.60
19248;DHT22;9758;48.640;8.148;2023-12-04T16:06:46;6.60;62.10
19248;DHT22;9758;48.640;8.148;2023-12-04T16:09:14;6.80;61.90
19248;DHT22;9758;48.640;8.148;2023-12-04T16:11:41;6.80;61.70
19248;DHT22;9758;48.640;8.148;2023-12-04T16:14:08;6.90;61.60
19248;DHT22;9758;48.640;8.148;2023-12-04T16:16:36;7.00;61.50
19248;DHT22;9758;48.640;8.148;2023-12-04T16:19:14;7.10;61.40